createdAt,value
2022-09-05T00:01:27.333Z,24.25
2022-09-05T00:03:58.879Z,24.10
2022-09-05T00:06:51.319Z,25.50
2022-09-05T00:09:22.290Z,25.27
2022-09-05T00:11:57.570Z,25.25
2022-09-05T00:15:14.893Z,24.13
2022-09-05T00:17:58.887Z,25.08
2022-09-05T00:24:23.214Z,26.10
2022-09-05T00:24:26.448Z,25.80
2022-09-05T00:26:12.811Z,27.08
2022-09-05T00:28:44.095Z,24.40
2022-09-05T00:31:54.978Z,25.98
2022-09-05T00:34:19.568Z,25.65
2022-09-05T00:36:48.006Z,25.30
2022-09-05T00:39:19.474Z,26.73
2022-09-05T00:41:49.180Z,25.27
2022-09-05T00:44:18.420Z,25.23
2022-09-05T00:46:52.094Z,25.55
2022-09-05T00:49:22.833Z,25.80
2022-09-05T00:51:54.139Z,25.73
2022-09-05T00:54:42.334Z,26.25
2022-09-05T00:57:23.861Z,25.67
2022-09-05T01:00:08.388Z,26.10
2022-09-05T01:02:52.616Z,25.75
2022-09-05T01:05:27.168Z,24.75
2022-09-05T01:08:04.744Z,26.13
2022-09-05T01:10:36.736Z,24.50
2022-09-05T01:13:13.815Z,25.35
2022-09-05T01:15:47.285Z,23.67
2022-09-05T01:18:25.394Z,22.70
2022-09-05T01:21:34.748Z,23.42
2022-09-05T01:24:09.763Z,23.95
2022-09-05T01:27:04.443Z,24.92
2022-09-05T01:29:37.633Z,23.67
2022-09-05T01:32:21.508Z,24.20
2022-09-05T01:34:59.096Z,23.42
2022-09-05T01:37:33.447Z,24.08
2022-09-05T01:40:15.661Z,23.50
2022-09-05T01:42:50.999Z,22.98
2022-09-05T01:45:21.591Z,22.08
2022-09-05T01:47:55.870Z,22.20
2022-09-05T01:50:37.239Z,20.63
2022-09-05T01:53:15.348Z,20.63
2022-09-05T01:56:05.209Z,19.67
2022-09-05T01:58:47.462Z,20.05
2022-09-05T02:01:27.992Z,19.25
2022-09-05T02:04:12.391Z,17.55
2022-09-05T02:06:44.134Z,17.80
2022-09-05T02:09:19.975Z,16.38
2022-09-05T02:11:50.590Z,16.02
2022-09-05T02:14:33.838Z,15.38
2022-09-05T02:17:49.353Z,13.93
2022-09-05T02:20:09.848Z,12.43
2022-09-05T02:22:43.288Z,12.70
2022-09-05T02:25:30.469Z,11.95
2022-09-05T02:28:06.395Z,11.00
2022-09-05T02:30:35.625Z,10.85
2022-09-05T02:33:12.528Z,9.75
2022-09-05T02:35:45.779Z,8.80
2022-09-05T02:39:27.037Z,8.60
2022-09-05T02:45:07.732Z,7.90
2022-09-05T02:45:19.865Z,6.55
2022-09-05T02:46:47.069Z,6.43
2022-09-05T02:51:45.014Z,6.20
2022-09-05T02:57:30.218Z,5.78
2022-09-05T02:57:37.798Z,5.05
2022-09-05T02:58:07.089Z,4.70
2022-09-05T03:00:39.264Z,4.50
2022-09-05T03:03:15.136Z,3.95
2022-09-05T03:05:47.080Z,3.80
2022-09-05T03:08:25.277Z,3.42
2022-09-05T03:11:20.278Z,3.17
2022-09-05T03:14:22.827Z,3.00
2022-09-05T03:17:15.081Z,3.50
2022-09-05T03:20:14.152Z,2.33
2022-09-05T03:23:02.013Z,2.30
2022-09-05T03:25:47.232Z,2.35
2022-09-05T03:28:52.244Z,2.10
2022-09-05T03:31:26.413Z,2.25
2022-09-05T03:34:17.793Z,1.73
2022-09-05T03:37:15.472Z,1.90
2022-09-05T03:40:34.615Z,2.03
2022-09-05T03:43:29.729Z,1.73
2022-09-05T03:46:02.502Z,1.70
2022-09-05T03:48:48.020Z,1.67
2022-09-05T03:57:11.253Z,1.73
2022-09-05T03:57:27.735Z,1.58
2022-09-05T03:57:42.547Z,2.45
2022-09-05T04:00:20.712Z,1.70
2022-09-05T04:08:07.919Z,1.58
2022-09-05T04:08:25.372Z,1.80
2022-09-05T04:08:42.635Z,1.65
2022-09-05T04:11:12.470Z,1.55
2022-09-05T04:13:45.330Z,1.60
2022-09-05T04:16:16.655Z,1.60
2022-09-05T04:18:46.031Z,1.50
2022-09-05T04:21:15.948Z,1.88
2022-09-05T04:23:57.111Z,1.77
2022-09-05T04:26:43.092Z,1.92
2022-09-05T04:29:15.987Z,1.70
2022-09-05T04:31:51.972Z,3.65
2022-09-05T04:34:42.341Z,1.90
2022-09-05T04:37:10.797Z,1.77
2022-09-05T04:39:38.507Z,2.10
2022-09-05T04:42:19.754Z,1.70
2022-09-05T04:44:48.946Z,1.85
2022-09-05T04:47:20.318Z,1.80
2022-09-05T04:49:50.827Z,1.70
2022-09-05T04:52:58.729Z,1.75
2022-09-05T04:55:27.193Z,3.88
2022-09-05T04:57:56.167Z,1.63
2022-09-05T05:06:04.678Z,1.90
2022-09-05T05:06:14.278Z,1.60
2022-09-05T05:08:58.365Z,2.17
2022-09-05T05:16:29.910Z,1.60
2022-09-05T05:18:00.928Z,1.90
2022-09-05T05:18:14.993Z,2.00
2022-09-05T05:20:39.854Z,1.60
2022-09-05T05:23:11.408Z,2.08
2022-09-05T05:25:44.412Z,1.60
2022-09-05T05:28:24.408Z,1.73
2022-09-05T05:30:58.303Z,1.65
2022-09-05T05:33:30.723Z,1.65
2022-09-05T05:36:00.362Z,1.70
2022-09-05T05:38:32.688Z,1.80
2022-09-05T05:41:03.477Z,2.03
2022-09-05T05:43:35.332Z,1.83
2022-09-05T05:46:03.104Z,2.05
2022-09-05T05:48:36.769Z,1.83
2022-09-05T05:51:20.041Z,1.70
2022-09-05T05:54:03.961Z,1.80
2022-09-05T05:56:40.819Z,2.13
2022-09-05T05:59:24.632Z,1.60
2022-09-05T06:02:37.640Z,2.28
2022-09-05T06:05:28.536Z,9.07
2022-09-05T06:10:57.385Z,5.43
2022-09-05T06:15:00.010Z,5.07
2022-09-05T06:15:02.500Z,3.97
2022-09-05T06:17:45.231Z,4.47
2022-09-05T06:22:05.042Z,3.28
2022-09-05T06:23:59.298Z,4.75
2022-09-05T06:26:41.306Z,3.88
2022-09-05T06:29:12.587Z,3.92
2022-09-05T06:31:49.378Z,3.58
2022-09-05T06:34:35.226Z,2.22
2022-09-05T06:37:07.584Z,2.20
2022-09-05T06:39:49.363Z,2.38
2022-09-05T06:42:42.160Z,8.48
2022-09-05T06:45:30.056Z,2.70
2022-09-05T06:48:00.543Z,2.25
2022-09-05T06:50:39.436Z,2.05
2022-09-05T06:53:36.772Z,2.10
2022-09-05T06:56:26.013Z,1.88
2022-09-05T06:59:27.525Z,2.88
2022-09-05T07:02:01.261Z,3.60
2022-09-05T07:05:23.228Z,2.60
2022-09-05T07:07:24.207Z,2.30
2022-09-05T07:09:58.930Z,2.50
2022-09-05T07:12:30.298Z,2.15
2022-09-05T07:15:08.522Z,2.28
2022-09-05T07:18:09.146Z,2.88
2022-09-05T07:21:06.742Z,1.90
2022-09-05T07:24:07.090Z,2.67
2022-09-05T07:26:35.074Z,1.80
2022-09-05T07:29:19.093Z,2.95
2022-09-05T07:31:52.964Z,2.17
2022-09-05T07:34:22.579Z,2.13
2022-09-05T07:37:03.060Z,2.03
2022-09-05T07:39:40.943Z,2.13
2022-09-05T07:42:11.598Z,2.20
2022-09-05T07:44:41.991Z,2.83
2022-09-05T07:47:10.920Z,3.35
2022-09-05T07:49:50.538Z,2.25
2022-09-05T07:56:51.884Z,2.38
2022-09-05T07:57:02.077Z,2.72
2022-09-05T07:58:14.688Z,1.95
2022-09-05T08:00:44.058Z,1.90
2022-09-05T08:03:12.932Z,2.17
2022-09-05T08:05:42.258Z,2.13
2022-09-05T08:08:10.887Z,2.95
2022-09-05T08:11:24.316Z,2.33
2022-09-05T08:13:46.526Z,3.25
2022-09-05T08:16:19.485Z,3.22
2022-09-05T08:18:49.941Z,2.55
2022-09-05T08:21:27.624Z,2.20
2022-09-05T08:23:58.083Z,3.13
2022-09-05T08:26:32.544Z,3.05
2022-09-05T08:29:03.545Z,1.98
2022-09-05T08:31:38.606Z,2.05
2022-09-05T08:34:12.012Z,2.00
2022-09-05T08:36:41.222Z,2.00
2022-09-05T08:39:10.284Z,2.47
2022-09-05T08:41:52.314Z,2.95
2022-09-05T08:46:37.682Z,2.15
2022-09-05T08:47:22.329Z,2.08
2022-09-05T08:50:04.788Z,2.22
2022-09-05T08:52:39.140Z,2.33
2022-09-05T08:55:12.144Z,3.72
2022-09-05T08:58:05.858Z,1.90
2022-09-05T09:00:35.940Z,3.00
2022-09-05T09:03:11.700Z,2.40
2022-09-05T09:06:17.048Z,2.38
2022-09-05T09:09:09.634Z,2.20
2022-09-05T09:11:38.691Z,2.60
2022-09-05T09:14:35.623Z,2.40
2022-09-05T09:17:08.194Z,2.30
2022-09-05T09:19:47.586Z,2.22
2022-09-05T09:22:19.655Z,2.42
2022-09-05T09:25:08.277Z,2.22
2022-09-05T09:28:17.688Z,2.20
2022-09-05T09:30:32.295Z,2.55
2022-09-05T09:33:03.557Z,2.03
2022-09-05T09:35:38.736Z,3.33
2022-09-05T09:38:27.319Z,4.45
2022-09-05T09:41:28.839Z,2.05
2022-09-05T09:44:35.350Z,1.90
2022-09-05T09:47:03.969Z,1.85
2022-09-05T09:49:42.619Z,1.83
2022-09-05T09:52:50.116Z,2.08
2022-09-05T09:56:12.159Z,2.30
2022-09-05T09:58:57.773Z,2.10
2022-09-05T10:01:37.355Z,3.63
2022-09-05T10:10:36.401Z,3.70
2022-09-05T10:11:09.015Z,2.40
2022-09-05T10:11:18.844Z,2.10
2022-09-05T10:13:29.696Z,2.35
2022-09-05T10:16:30.603Z,2.95
2022-09-05T10:19:11.947Z,2.65
2022-09-05T10:22:34.343Z,2.33
2022-09-05T10:24:58.968Z,2.30
2022-09-05T10:28:14.256Z,2.20
2022-09-05T10:32:51.994Z,2.28
2022-09-05T10:35:10.024Z,2.20
2022-09-05T10:36:28.621Z,2.30
2022-09-05T10:39:02.903Z,2.17
2022-09-05T10:41:43.469Z,2.20
2022-09-05T10:44:13.499Z,2.70
2022-09-05T10:46:51.132Z,2.20
2022-09-05T10:49:22.303Z,2.78
2022-09-05T10:51:58.308Z,2.25
2022-09-05T10:54:49.404Z,2.33
2022-09-05T10:57:27.913Z,2.40
2022-09-05T11:02:21.117Z,2.92
2022-09-05T11:02:57.670Z,2.10
2022-09-05T11:05:27.220Z,2.17
2022-09-05T11:08:01.794Z,2.67
2022-09-05T11:10:32.815Z,2.25
2022-09-05T11:13:16.973Z,2.33
2022-09-05T11:16:03.634Z,2.55
2022-09-05T11:18:56.218Z,2.35
2022-09-05T11:21:28.333Z,2.30
2022-09-05T11:23:57.554Z,2.50
2022-09-05T11:26:32.225Z,2.00
2022-09-05T11:29:03.161Z,2.38
2022-09-05T11:34:07.366Z,2.15
2022-09-05T11:39:52.398Z,2.28
2022-09-05T11:40:02.803Z,2.33
2022-09-05T11:40:58.048Z,4.25
2022-09-05T11:44:26.199Z,1.90
2022-09-05T11:47:28.724Z,2.15
2022-09-05T11:50:25.117Z,2.20
2022-09-05T11:53:14.193Z,1.90
2022-09-05T11:56:05.898Z,2.50
2022-09-05T11:58:50.452Z,2.15
2022-09-05T12:01:41.168Z,2.65
2022-09-05T12:04:18.712Z,2.30
2022-09-05T12:07:15.478Z,2.17
2022-09-05T12:10:47.603Z,1.90
2022-09-05T12:13:42.448Z,2.03
2022-09-05T12:16:26.503Z,1.70
2022-09-05T12:19:06.318Z,2.20
2022-09-05T12:22:08.913Z,2.28
2022-09-05T12:25:24.706Z,2.17
2022-09-05T12:27:46.336Z,1.92
2022-09-05T12:30:15.665Z,2.15
2022-09-05T12:35:53.087Z,2.30
2022-09-05T12:36:12.902Z,2.15
2022-09-05T12:40:53.715Z,2.65
2022-09-05T12:41:44.277Z,2.03
2022-09-05T12:44:44.288Z,1.88
2022-09-05T12:47:18.666Z,2.28
2022-09-05T12:49:55.315Z,1.80
2022-09-05T12:52:37.781Z,2.10
2022-09-05T12:55:09.302Z,2.92
2022-09-05T13:00:56.201Z,2.10
2022-09-05T13:03:11.562Z,4.70
2022-09-05T13:03:28.029Z,19.63
2022-09-05T13:06:10.417Z,34.10
2022-09-05T13:08:59.984Z,27.50
2022-09-05T13:14:52.375Z,24.95
2022-09-05T13:14:54.758Z,21.67
2022-09-05T13:17:08.960Z,26.50
2022-09-05T13:19:40.366Z,23.75
2022-09-05T13:22:11.157Z,22.60
2022-09-05T13:24:41.579Z,20.40
2022-09-05T13:27:13.564Z,19.00
2022-09-05T13:30:56.392Z,17.60
2022-09-05T13:38:02.192Z,17.98
2022-09-05T13:38:02.865Z,19.27
2022-09-05T13:38:45.996Z,21.50
2022-09-05T13:41:27.313Z,21.23
2022-09-05T13:44:00.337Z,17.33
2022-09-05T13:46:57.873Z,16.00
2022-09-05T13:49:31.309Z,15.27
2022-09-05T13:52:07.541Z,14.52
2022-09-05T13:54:40.410Z,13.80
2022-09-05T13:57:32.420Z,21.13
2022-09-05T14:00:51.713Z,14.75
2022-09-05T14:03:58.051Z,12.60
2022-09-05T14:06:49.226Z,10.30
2022-09-05T14:09:40.223Z,14.98
2022-09-05T14:12:13.488Z,12.40
2022-09-05T14:17:54.694Z,12.35
2022-09-05T14:20:43.013Z,11.48
2022-09-05T14:23:13.525Z,11.90
2022-09-05T14:25:44.426Z,9.68
2022-09-05T14:28:14.441Z,10.82
2022-09-05T14:36:09.372Z,9.57
2022-09-05T14:37:45.202Z,10.35
2022-09-05T14:37:51.714Z,8.07
2022-09-05T14:39:50.600Z,11.05
2022-09-05T14:42:45.619Z,10.23
2022-09-05T14:45:33.961Z,11.02
2022-09-05T14:48:40.448Z,10.35
2022-09-05T14:51:25.760Z,11.00
2022-09-05T14:54:01.542Z,7.82
2022-09-05T14:59:37.750Z,7.35
2022-09-05T15:02:49.215Z,10.80
2022-09-05T15:02:51.877Z,7.75
2022-09-05T15:05:18.902Z,10.73
2022-09-05T15:07:47.458Z,8.10
2022-09-05T15:12:21.028Z,7.60
2022-09-05T15:13:25.972Z,7.15
2022-09-05T15:16:02.640Z,9.07
2022-09-05T15:18:32.257Z,7.63
2022-09-05T15:21:33.728Z,7.28
2022-09-05T15:24:17.165Z,6.55
2022-09-05T15:26:52.721Z,5.05
2022-09-05T15:29:23.695Z,7.57
2022-09-05T15:32:09.401Z,6.45
2022-09-05T15:34:38.667Z,5.72
2022-09-05T15:37:24.366Z,5.55
2022-09-05T15:40:22.558Z,6.63
2022-09-05T15:42:58.504Z,6.25
2022-09-05T15:45:30.048Z,5.93
2022-09-05T15:48:08.781Z,5.30
2022-09-05T15:50:42.164Z,4.43
2022-09-05T15:53:25.963Z,6.60
2022-09-05T15:56:00.021Z,5.53
2022-09-05T15:58:29.957Z,5.70
2022-09-05T16:01:48.573Z,5.97
2022-09-05T16:08:38.212Z,5.97
2022-09-05T16:10:38.652Z,5.65
2022-09-05T16:10:41.558Z,6.50
2022-09-05T16:16:50.127Z,5.53
2022-09-05T16:23:21.114Z,4.07
2022-09-05T16:23:23.855Z,4.07
2022-09-05T16:23:52.056Z,4.85
2022-09-05T16:26:25.706Z,5.72
2022-09-05T16:28:58.027Z,4.80
2022-09-05T16:31:30.313Z,5.07
2022-09-05T16:33:58.859Z,5.13
2022-09-05T16:36:31.166Z,4.28
2022-09-05T16:39:00.649Z,4.15
2022-09-05T16:41:35.741Z,3.97
2022-09-05T16:44:05.751Z,5.20
2022-09-05T16:46:36.757Z,3.85
2022-09-05T16:49:12.091Z,5.10
2022-09-05T16:51:44.241Z,5.25
2022-09-05T16:54:15.537Z,4.15
2022-09-05T16:56:44.841Z,4.00
2022-09-05T16:59:14.097Z,4.32
2022-09-05T17:02:00.560Z,4.40
2022-09-05T17:05:03.349Z,3.85
2022-09-05T17:07:42.268Z,3.75
2022-09-05T17:10:11.878Z,4.80
2022-09-05T17:12:40.116Z,4.18
2022-09-05T17:15:11.235Z,3.65
2022-09-05T17:18:20.411Z,3.67
2022-09-05T17:20:48.418Z,3.85
2022-09-05T17:26:45.460Z,3.58
2022-09-05T17:29:24.244Z,3.92
2022-09-05T17:29:32.523Z,4.82
2022-09-05T17:32:00.559Z,3.55
2022-09-05T17:34:49.878Z,4.43
2022-09-05T17:37:43.985Z,3.42
2022-09-05T17:40:48.210Z,2.80
2022-09-05T17:43:28.922Z,3.28
2022-09-05T17:46:16.349Z,3.15
2022-09-05T17:49:20.027Z,3.50
2022-09-05T17:52:18.404Z,2.92
2022-09-05T17:54:49.648Z,3.50
2022-09-05T17:57:45.294Z,2.75
2022-09-05T18:01:05.573Z,3.50
2022-09-05T18:04:17.193Z,3.72
2022-09-05T18:06:59.332Z,2.78
2022-09-05T18:10:05.946Z,2.22
2022-09-05T18:13:13.091Z,3.10
2022-09-05T18:16:13.326Z,2.58
2022-09-05T18:19:32.787Z,3.28
2022-09-05T18:21:48.544Z,3.45
2022-09-05T18:24:24.379Z,2.40
2022-09-05T18:27:11.418Z,3.58
2022-09-05T18:29:58.083Z,3.35
2022-09-05T18:32:45.278Z,3.17
2022-09-05T18:35:36.383Z,3.38
2022-09-05T18:38:51.850Z,2.85
2022-09-05T18:41:19.468Z,2.53
2022-09-05T18:44:12.265Z,3.75
2022-09-05T18:46:46.145Z,3.33
2022-09-05T18:50:22.015Z,2.67
2022-09-05T18:52:05.244Z,2.85
2022-09-05T18:54:36.156Z,2.85
2022-09-05T18:57:27.030Z,3.40
2022-09-05T18:59:56.708Z,2.20
2022-09-05T19:02:50.296Z,3.10
2022-09-05T19:05:28.414Z,2.70
2022-09-05T19:07:59.503Z,2.17
2022-09-05T19:10:35.744Z,2.97
2022-09-05T19:13:10.607Z,3.00
2022-09-05T19:15:47.951Z,2.65
2022-09-05T19:18:26.881Z,2.55
2022-09-05T19:21:11.773Z,2.85
2022-09-05T19:23:43.713Z,2.17
2022-09-05T19:26:11.879Z,2.78
2022-09-05T19:36:57.822Z,2.75
2022-09-05T19:37:05.766Z,2.67
2022-09-05T19:37:15.604Z,2.40
2022-09-05T19:37:29.279Z,3.15
2022-09-05T19:42:48.044Z,2.67
2022-09-05T19:47:26.061Z,2.00
2022-09-05T19:47:48.432Z,1.80
2022-09-05T19:48:30.617Z,2.58
2022-09-05T19:51:16.434Z,2.78
2022-09-05T19:53:47.573Z,2.42
2022-09-05T19:56:22.248Z,2.20
2022-09-05T19:58:50.559Z,2.95
2022-09-05T20:01:20.839Z,2.78
2022-09-05T20:03:50.804Z,2.47
2022-09-05T20:06:29.443Z,2.30
2022-09-05T20:09:09.478Z,2.60
2022-09-05T20:11:45.756Z,3.03
2022-09-05T20:14:19.142Z,1.98
2022-09-05T20:16:49.572Z,2.10
2022-09-05T20:19:32.804Z,2.03
2022-09-05T20:22:42.553Z,2.40
2022-09-05T20:24:54.204Z,2.60
2022-09-05T20:27:27.679Z,2.13
2022-09-05T20:30:00.476Z,2.22
2022-09-05T20:32:38.664Z,2.20
2022-09-05T20:37:57.227Z,2.05
2022-09-05T20:43:09.668Z,2.17
2022-09-05T20:43:26.921Z,2.10
2022-09-05T20:43:52.490Z,2.65
2022-09-05T20:48:19.447Z,3.72
2022-09-05T20:54:06.802Z,2.10
2022-09-05T20:54:15.418Z,2.65
2022-09-05T20:55:38.789Z,2.15
2022-09-05T20:57:48.577Z,2.13
2022-09-05T21:00:18.051Z,2.95
2022-09-05T21:02:51.348Z,2.15
2022-09-05T21:05:25.578Z,2.10
2022-09-05T21:08:07.235Z,3.00
2022-09-05T21:10:54.784Z,2.15
2022-09-05T21:13:25.958Z,2.30
2022-09-05T21:15:55.561Z,2.30
2022-09-05T21:18:33.086Z,2.08
2022-09-05T21:21:28.903Z,2.08
2022-09-05T21:24:05.258Z,3.08
2022-09-05T21:26:47.402Z,3.03
2022-09-05T21:29:16.476Z,2.10
2022-09-05T21:31:45.856Z,2.55
2022-09-05T21:34:20.342Z,2.55
2022-09-05T21:36:48.617Z,2.13
2022-09-05T21:39:25.184Z,2.00
2022-09-05T21:42:07.768Z,1.85
2022-09-05T21:47:46.043Z,2.47
2022-09-05T21:47:48.488Z,1.98
2022-09-05T21:50:31.232Z,1.88
2022-09-05T21:54:28.173Z,2.67
2022-09-05T21:59:27.859Z,2.58
2022-09-05T21:59:27.971Z,2.15
2022-09-05T22:01:51.268Z,2.15
2022-09-05T22:04:19.387Z,2.72
2022-09-05T22:06:48.382Z,2.90
2022-09-05T22:09:17.540Z,2.13
2022-09-05T22:11:50.709Z,2.70
2022-09-05T22:14:20.705Z,2.13
2022-09-05T22:16:50.611Z,2.42
2022-09-05T22:19:34.003Z,2.17
2022-09-05T22:22:15.595Z,2.50
2022-09-05T22:24:46.886Z,2.95
2022-09-05T22:27:14.827Z,1.88
2022-09-05T22:29:47.329Z,2.00
2022-09-05T22:32:18.123Z,3.22
2022-09-05T22:35:27.810Z,2.75
2022-09-05T22:37:59.371Z,1.70
2022-09-05T22:40:28.113Z,1.60
2022-09-05T22:42:56.763Z,2.08
2022-09-05T22:45:25.923Z,2.95
2022-09-05T22:47:53.644Z,1.95
2022-09-05T22:50:21.420Z,1.75
2022-09-05T22:52:49.099Z,1.55
2022-09-05T22:55:16.998Z,1.50
2022-09-05T22:57:44.951Z,2.10
2022-09-05T23:00:13.575Z,2.33
2022-09-05T23:02:42.646Z,3.35
2022-09-05T23:05:10.889Z,1.70
2022-09-05T23:07:38.746Z,2.20
2022-09-05T23:10:06.911Z,1.67
2022-09-05T23:12:37.434Z,1.50
2022-09-05T23:15:05.734Z,1.95
2022-09-05T23:17:33.489Z,1.95
2022-09-05T23:20:03.519Z,1.73
2022-09-05T23:22:31.212Z,2.78
2022-09-05T23:24:58.896Z,1.83
2022-09-05T23:27:26.725Z,1.70
2022-09-05T23:29:54.449Z,2.00
2022-09-05T23:32:22.164Z,1.77
2022-09-05T23:34:50.153Z,1.70
2022-09-05T23:37:19.192Z,1.52
2022-09-05T23:39:46.919Z,2.10
2022-09-05T23:42:14.685Z,1.98
2022-09-05T23:44:42.372Z,1.77
2022-09-05T23:47:10.111Z,7.38
2022-09-05T23:49:37.802Z,2.05
2022-09-05T23:52:05.506Z,1.80
2022-09-05T23:54:34.517Z,2.67
2022-09-05T23:57:02.232Z,1.98
2022-09-05T23:59:29.926Z,2.00
